TimeCET,TemperatureF,Dew PointF,Humidity,Sea Level PressureIn,VisibilityMPH,Wind Direction,Wind SpeedMPH,Gust SpeedMPH,PrecipitationIn,Events,Conditions,WindDirDegrees,DateUTC
12:00 AM,30.2,26.6,86,29.95,4.3,North,11.5,-,N/A,Snow,Light Snow,350,2013-03-21 23:00:00
12:30 AM,30.2,26.6,86,29.95,3.7,NNW,10.4,-,N/A,Snow,Light Snow,340,2013-03-21 23:30:00
12:35 AM,30.2,26.6,86,29.95,2.5,NNW,10.4,-,N/A,Snow,Light Snow,340,2013-03-21 23:35:00
1:00 AM,30,26,81,30.01,2,NNW,11.2,,,Snow,Light Snow,340,2013-03-22 00:00:00
1:00 AM,30.2,26.6,86,29.95,2.5,NNW,10.4,-,N/A,Snow,Light Snow,340,2013-03-22 00:00:00
1:30 AM,30.2,26.6,86,29.95,2.5,NNW,11.5,-,N/A,Snow,Light Snow,340,2013-03-22 00:30:00
2:00 AM,30.2,26.6,86,29.95,2.5,NNW,9.2,-,N/A,Snow,Light Snow,340,2013-03-22 01:00:00
2:30 AM,30.2,26.6,86,29.95,2.5,North,9.2,-,N/A,Snow,Light Snow,350,2013-03-22 01:30:00
3:00 AM,30.2,26.6,86,29.95,1.7,NNW,6.9,-,N/A,Snow,Light Snow,340,2013-03-22 02:00:00
3:30 AM,30.2,26.6,86,29.95,1.7,North,11.5,-,N/A,Snow,Light Snow,350,2013-03-22 02:30:00
4:00 AM,30.2,26.6,86,29.95,2.5,North,10.4,-,N/A,Snow,Light Snow,350,2013-03-22 03:00:00
4:30 AM,30.2,26.6,86,29.95,1.9,North,12.7,-,N/A,Snow,Light Snow,350,2013-03-22 03:30:00
5:00 AM,30.2,26.6,86,29.95,2.5,North,11.5,-,N/A,Snow,Light Snow,350,2013-03-22 04:00:00
5:30 AM,30.2,26.6,86,29.95,2.5,North,15.0,-,N/A,Snow,Light Snow,360,2013-03-22 04:30:00
6:00 AM,30.2,26.6,86,29.95,2.2,North,12.7,-,N/A,Snow,Light Snow,360,2013-03-22 05:00:00
6:30 AM,30.2,26.6,86,29.98,2.2,North,13.8,-,N/A,Snow,Light Snow,350,2013-03-22 05:30:00
7:00 AM,29,26,81,30.03,2,North,13.4,,,Snow,Light Snow,0,2013-03-22 06:00:00
7:00 AM,30.2,26.6,86,29.98,2.2,North,12.7,-,N/A,Snow,Light Snow,350,2013-03-22 06:00:00
7:30 AM,30.2,26.6,86,29.98,1.7,North,16.1,-,N/A,Snow,Light Snow,360,2013-03-22 06:30:00
8:00 AM,28.4,24.8,86,29.98,2.2,North,13.8,-,N/A,Snow,Light Snow,360,2013-03-22 07:00:00
8:30 AM,28.4,24.8,86,29.98,3.1,North,11.5,-,N/A,Snow,Light Snow,350,2013-03-22 07:30:00
9:00 AM,28.4,24.8,86,29.98,5.0,North,13.8,-,N/A,Snow,Light Snow,350,2013-03-22 08:00:00
9:30 AM,30.2,23.0,75,29.98,5.6,North,12.7,-,N/A,,Overcast,350,2013-03-22 08:30:00
10:00 AM,28.4,23.0,80,30.01,6.2,North,16.1,-,N/A,,Overcast,350,2013-03-22 09:00:00
10:30 AM,30.2,23.0,75,30.01,6.2,North,15.0,-,N/A,Snow,Light Snow,360,2013-03-22 09:30:00
10:52 AM,30.2,23.0,75,30.01,2.8,North,11.5,-,N/A,Snow,Light Snow,360,2013-03-22 09:52:00
11:00 AM,28.4,24.8,86,30.01,2.2,North,13.8,-,N/A,Snow,Light Snow,350,2013-03-22 10:00:00
11:30 AM,28.4,24.8,86,30.01,2.8,North,10.4,-,N/A,Snow,Light Snow,360,2013-03-22 10:30:00
12:00 PM,28.4,24.8,86,30.01,2.8,North,9.2,-,N/A,Snow,Light Snow,360,2013-03-22 11:00:00
12:30 PM,30.2,24.8,80,30.01,2.5,North,13.8,-,N/A,Snow,Light Snow,360,2013-03-22 11:30:00
1:00 PM,29,24,75,30.07,3,North,11.2,,,Snow,Light Snow,0,2013-03-22 12:00:00
1:00 PM,30.2,24.8,80,30.01,2.8,North,12.7,-,N/A,Snow,Light Snow,360,2013-03-22 12:00:00
1:30 PM,30.2,24.8,80,30.01,2.8,North,11.5,-,N/A,Snow,Light Snow,360,2013-03-22 12:30:00
2:00 PM,30.2,24.8,80,30.01,3.1,North,12.7,-,N/A,Snow,Light Snow,360,2013-03-22 13:00:00
2:30 PM,30.2,24.8,80,30.01,3.1,North,11.5,-,N/A,Snow,Light Snow,350,2013-03-22 13:30:00
3:00 PM,30.2,24.8,80,30.01,2.8,North,10.4,-,N/A,Snow,Light Snow,360,2013-03-22 14:00:00
3:30 PM,28.4,24.8,86,30.01,2.5,North,13.8,-,N/A,Snow,Light Snow,360,2013-03-22 14:30:00
4:00 PM,30.2,24.8,80,30.01,2.5,North,13.8,-,N/A,Snow,Light Snow,10,2013-03-22 15:00:00
4:30 PM,28.4,24.8,86,30.01,2.2,North,12.7,-,N/A,Snow,Light Snow,360,2013-03-22 15:30:00
5:00 PM,28.4,24.8,86,30.04,2.2,NNE,11.5,-,N/A,Snow,Light Snow,20,2013-03-22 16:00:00
5:30 PM,28.4,24.8,86,30.04,2.5,North,11.5,-,N/A,Snow,Light Snow,360,2013-03-22 16:30:00
6:00 PM,28.4,24.8,86,30.04,2.5,North,11.5,-,N/A,Snow,Light Snow,10,2013-03-22 17:00:00
6:30 PM,28.4,24.8,86,30.04,2.5,NNE,13.8,-,N/A,Snow,Light Snow,20,2013-03-22 17:30:00
7:00 PM,28,24,78,30.12,3,NNE,13.4,,,Snow,Light Snow,20,2013-03-22 18:00:00
7:00 PM,28.4,24.8,86,30.06,3.1,NNE,12.7,-,N/A,Snow,Light Snow,20,2013-03-22 18:00:00
7:30 PM,28.4,23.0,80,30.06,3.1,NNE,13.8,-,N/A,Snow,Light Snow,20,2013-03-22 18:30:00
8:00 PM,28.4,21.2,74,30.06,5.0,North,15.0,-,N/A,Snow,Light Snow,10,2013-03-22 19:00:00
8:30 PM,28.4,21.2,74,30.06,6.2,NNE,17.3,-,N/A,Snow,Light Snow,20,2013-03-22 19:30:00
9:00 PM,28.4,21.2,74,30.06,6.2,NNE,15.0,-,N/A,Snow,Light Snow,20,2013-03-22 20:00:00
9:30 PM,26.6,21.2,80,30.09,6.2,North,15.0,-,N/A,Snow,Light Snow,10,2013-03-22 20:30:00
10:00 PM,26.6,21.2,80,30.09,5.0,North,16.1,-,N/A,Snow,Light Snow,10,2013-03-22 21:00:00
10:30 PM,26.6,21.2,80,30.09,6.2,NNE,13.8,-,N/A,Snow,Light Snow,20,2013-03-22 21:30:00
11:00 PM,24.8,21.2,86,30.09,5.6,NNE,15.0,-,N/A,Snow,Light Snow,20,2013-03-22 22:00:00
11:30 PM,24.8,19.4,80,30.09,5.0,NNE,15.0,-,N/A,Snow,Light Snow,20,2013-03-22 22:30:00